sensor_id;sensor_type;location;lat;lon;timestamp;temperature;humidity
66312;HTU21D;53114;51.138;6.008;2023-02-02T00:01:22;8.86;118.99
66312;HTU21D;53114;51.138;6.008;2023-02-02T00:03:49;8.90;118.99
66312;HTU21D;53114;51.138;6.008;2023-02-02T00:06:17;8.92;118.99
66312;HTU21D;53114;51.138;6.008;2023-02-02T00:08:43;8.95;118.99
66312;HTU21D;53114;51.138;6.008;2023-02-02T00:11:09;8.95;118.99
66312;HTU21D;53114;51.138;6.008;2023-02-02T00:13:36;8.96;118.99
66312;HTU21D;53114;51.138;6.008;2023-02-02T00:16:32;8.97;118.99
66312;HTU21D;53114;51.138;6.008;2023-02-02T00:19:03;8.96;118.99
66312;HTU21D;53114;51.138;6.008;2023-02-02T00:21:30;8.92;118.99
66312;HTU21D;53114;51.138;6.008;2023-02-02T00:23:56;8.87;118.99
66312;HTU21D;53114;51.138;6.008;2023-02-02T00:26:22;8.81;118.99
66312;HTU21D;53114;51.138;6.008;2023-02-02T00:28:48;8.77;118.99
66312;HTU21D;53114;51.138;6.008;2023-02-02T00:31:15;8.73;118.99
66312;HTU21D;53114;51.138;6.008;2023-02-02T00:33:48;8.66;118.99
66312;HTU21D;53114;51.138;6.008;2023-02-02T00:36:16;8.64;118.99
66312;HTU21D;53114;51.138;6.008;2023-02-02T00:38:43;8.63;118.99
66312;HTU21D;53114;51.138;6.008;2023-02-02T00:41:09;8.62;118.99
66312;HTU21D;53114;51.138;6.008;2023-02-02T00:43:35;8.63;118.99
66312;HTU21D;53114;51.138;6.008;2023-02-02T00:46:01;8.61;118.99
66312;HTU21D;53114;51.138;6.008;2023-02-02T00:48:27;8.61;118.99
66312;HTU21D;53114;51.138;6.008;2023-02-02T00:50:54;8.61;118.99
66312;HTU21D;53114;51.138;6.008;2023-02-02T00:53:21;8.65;118.99
66312;HTU21D;53114;51.138;6.008;2023-02-02T00:55:47;8.68;118.99
66312;HTU21D;53114;51.138;6.008;2023-02-02T00:58:13;8.70;118.99
66312;HTU21D;53114;51.138;6.008;2023-02-02T01:00:39;8.71;118.99
66312;HTU21D;53114;51.138;6.008;2023-02-02T01:03:05;8.68;118.99
66312;HTU21D;53114;51.138;6.008;2023-02-02T01:05:33;8.71;118.99
66312;HTU21D;53114;51.138;6.008;2023-02-02T01:07:59;8.74;118.99
66312;HTU21D;53114;51.138;6.008;2023-02-02T01:10:26;8.77;118.99
66312;HTU21D;53114;51.138;6.008;2023-02-02T01:12:53;8.75;118.99
66312;HTU21D;53114;51.138;6.008;2023-02-02T01:15:19;8.75;118.99
66312;HTU21D;53114;51.138;6.008;2023-02-02T01:17:45;8.79;118.99
66312;HTU21D;53114;51.138;6.008;2023-02-02T01:20:17;8.80;118.99
66312;HTU21D;53114;51.138;6.008;2023-02-02T01:22:44;8.82;118.99
66312;HTU21D;53114;51.138;6.008;2023-02-02T01:25:11;8.82;118.99
66312;HTU21D;53114;51.138;6.008;2023-02-02T01:27:37;8.86;118.99
66312;HTU21D;53114;51.138;6.008;2023-02-02T01:30:04;8.87;118.99
66312;HTU21D;53114;51.138;6.008;2023-02-02T01:32:30;8.87;118.99
66312;HTU21D;53114;51.138;6.008;2023-02-02T01:34:56;8.86;118.99
66312;HTU21D;53114;51.138;6.008;2023-02-02T01:37:22;8.83;118.99
66312;HTU21D;53114;51.138;6.008;2023-02-02T01:39:48;8.85;118.99
66312;HTU21D;53114;51.138;6.008;2023-02-02T01:42:21;8.87;118.99
66312;HTU21D;53114;51.138;6.008;2023-02-02T01:47:28;8.86;118.99
66312;HTU21D;53114;51.138;6.008;2023-02-02T01:49:55;8.86;118.99
66312;HTU21D;53114;51.138;6.008;2023-02-02T01:52:24;8.87;118.99
66312;HTU21D;53114;51.138;6.008;2023-02-02T01:54:55;8.83;118.99
66312;HTU21D;53114;51.138;6.008;2023-02-02T01:57:30;8.86;118.99
66312;HTU21D;53114;51.138;6.008;2023-02-02T02:00:02;8.87;118.99
66312;HTU21D;53114;51.138;6.008;2023-02-02T02:02:44;8.88;118.99
66312;HTU21D;53114;51.138;6.008;2023-02-02T02:05:19;8.88;118.99
66312;HTU21D;53114;51.138;6.008;2023-02-02T02:07:48;8.90;118.99
66312;HTU21D;53114;51.138;6.008;2023-02-02T02:10:18;8.87;118.99
66312;HTU21D;53114;51.138;6.008;2023-02-02T02:12:46;8.85;118.99
66312;HTU21D;53114;51.138;6.008;2023-02-02T02:15:13;8.86;118.99
66312;HTU21D;53114;51.138;6.008;2023-02-02T02:27:03;8.81;118.99
66312;HTU21D;53114;51.138;6.008;2023-02-02T02:32:42;8.85;118.99
66312;HTU21D;53114;51.138;6.008;2023-02-02T02:35:47;8.87;118.99
66312;HTU21D;53114;51.138;6.008;2023-02-02T02:38:38;8.87;118.99
66312;HTU21D;53114;51.138;6.008;2023-02-02T02:41:21;8.90;118.99
66312;HTU21D;53114;51.138;6.008;2023-02-02T02:43:58;8.91;118.99
66312;HTU21D;53114;51.138;6.008;2023-02-02T02:46:25;8.94;118.99
66312;HTU21D;53114;51.138;6.008;2023-02-02T02:48:56;8.93;118.99
66312;HTU21D;53114;51.138;6.008;2023-02-02T02:54:04;8.92;118.99
66312;HTU21D;53114;51.138;6.008;2023-02-02T02:56:43;8.94;118.99
66312;HTU21D;53114;51.138;6.008;2023-02-02T03:02:46;8.96;118.99
66312;HTU21D;53114;51.138;6.008;2023-02-02T03:10:52;8.97;118.99
66312;HTU21D;53114;51.138;6.008;2023-02-02T03:13:20;9.00;118.99
66312;HTU21D;53114;51.138;6.008;2023-02-02T03:15:46;9.00;118.99
66312;HTU21D;53114;51.138;6.008;2023-02-02T03:18:15;9.01;118.99
66312;HTU21D;53114;51.138;6.008;2023-02-02T03:20:44;9.01;118.99
66312;HTU21D;53114;51.138;6.008;2023-02-02T03:23:10;9.03;118.99
66312;HTU21D;53114;51.138;6.008;2023-02-02T03:25:37;9.03;118.99
66312;HTU21D;53114;51.138;6.008;2023-02-02T03:28:04;9.04;118.99
66312;HTU21D;53114;51.138;6.008;2023-02-02T03:30:31;9.03;118.99
66312;HTU21D;53114;51.138;6.008;2023-02-02T03:32:58;9.05;118.99
66312;HTU21D;53114;51.138;6.008;2023-02-02T03:35:24;9.07;118.99
66312;HTU21D;53114;51.138;6.008;2023-02-02T03:37:51;9.07;118.99
66312;HTU21D;53114;51.138;6.008;2023-02-02T03:40:18;9.07;118.99
66312;HTU21D;53114;51.138;6.008;2023-02-02T03:42:44;9.10;118.99
66312;HTU21D;53114;51.138;6.008;2023-02-02T03:45:10;9.10;118.99
66312;HTU21D;53114;51.138;6.008;2023-02-02T03:47:36;9.08;118.99
66312;HTU21D;53114;51.138;6.008;2023-02-02T03:50:04;9.08;118.99
66312;HTU21D;53114;51.138;6.008;2023-02-02T03:52:30;9.09;118.99
66312;HTU21D;53114;51.138;6.008;2023-02-02T03:54:56;9.06;118.99
66312;HTU21D;53114;51.138;6.008;2023-02-02T03:57:22;9.08;118.99
66312;HTU21D;53114;51.138;6.008;2023-02-02T03:59:48;9.08;118.99
66312;HTU21D;53114;51.138;6.008;2023-02-02T04:02:15;9.09;118.99
66312;HTU21D;53114;51.138;6.008;2023-02-02T04:04:41;9.11;118.99
66312;HTU21D;53114;51.138;6.008;2023-02-02T04:07:07;9.11;118.99
66312;HTU21D;53114;51.138;6.008;2023-02-02T04:09:33;9.10;118.99
66312;HTU21D;53114;51.138;6.008;2023-02-02T04:11:59;9.07;118.99
66312;HTU21D;53114;51.138;6.008;2023-02-02T04:14:25;9.07;118.99
66312;HTU21D;53114;51.138;6.008;2023-02-02T04:16:51;9.04;118.99
66312;HTU21D;53114;51.138;6.008;2023-02-02T04:19:18;9.04;118.99
66312;HTU21D;53114;51.138;6.008;2023-02-02T04:21:44;9.06;118.99
66312;HTU21D;53114;51.138;6.008;2023-02-02T04:24:11;9.06;118.99
66312;HTU21D;53114;51.138;6.008;2023-02-02T04:26:38;9.03;118.99
66312;HTU21D;53114;51.138;6.008;2023-02-02T04:29:04;9.04;118.99
66312;HTU21D;53114;51.138;6.008;2023-02-02T04:31:30;9.01;118.99
66312;HTU21D;53114;51.138;6.008;2023-02-02T04:33:57;9.00;118.99
66312;HTU21D;53114;51.138;6.008;2023-02-02T04:36:23;9.00;118.99
66312;HTU21D;53114;51.138;6.008;2023-02-02T04:38:51;8.91;118.99
66312;HTU21D;53114;51.138;6.008;2023-02-02T04:41:18;8.94;118.99
66312;HTU21D;53114;51.138;6.008;2023-02-02T04:43:44;8.91;118.99
66312;HTU21D;53114;51.138;6.008;2023-02-02T04:46:11;8.92;118.99
66312;HTU21D;53114;51.138;6.008;2023-02-02T04:48:37;8.93;118.99
66312;HTU21D;53114;51.138;6.008;2023-02-02T04:51:12;8.92;118.99
66312;HTU21D;53114;51.138;6.008;2023-02-02T04:53:39;8.92;118.99
66312;HTU21D;53114;51.138;6.008;2023-02-02T04:56:15;8.88;118.99
66312;HTU21D;53114;51.138;6.008;2023-02-02T04:58:42;8.90;118.99
66312;HTU21D;53114;51.138;6.008;2023-02-02T05:01:10;8.90;118.99
66312;HTU21D;53114;51.138;6.008;2023-02-02T05:03:36;8.89;118.99
66312;HTU21D;53114;51.138;6.008;2023-02-02T05:06:04;8.89;118.99
66312;HTU21D;53114;51.138;6.008;2023-02-02T05:08:30;8.88;118.99
66312;HTU21D;53114;51.138;6.008;2023-02-02T05:10:56;8.85;118.99
66312;HTU21D;53114;51.138;6.008;2023-02-02T05:13:22;8.85;118.99
66312;HTU21D;53114;51.138;6.008;2023-02-02T05:15:48;8.78;118.99
66312;HTU21D;53114;51.138;6.008;2023-02-02T05:18:14;8.73;118.99
66312;HTU21D;53114;51.138;6.008;2023-02-02T05:20:40;8.71;118.99
66312;HTU21D;53114;51.138;6.008;2023-02-02T05:23:06;8.65;118.99
66312;HTU21D;53114;51.138;6.008;2023-02-02T05:25:33;8.64;118.99
66312;HTU21D;53114;51.138;6.008;2023-02-02T05:27:59;8.56;118.99
66312;HTU21D;53114;51.138;6.008;2023-02-02T05:30:25;8.51;118.99
66312;HTU21D;53114;51.138;6.008;2023-02-02T05:32:51;8.46;118.99
66312;HTU21D;53114;51.138;6.008;2023-02-02T05:35:17;8.44;118.99
66312;HTU21D;53114;51.138;6.008;2023-02-02T05:37:43;8.38;118.99
66312;HTU21D;53114;51.138;6.008;2023-02-02T05:40:10;8.36;118.99
66312;HTU21D;53114;51.138;6.008;2023-02-02T05:42:36;8.33;118.99
66312;HTU21D;53114;51.138;6.008;2023-02-02T05:45:02;8.31;118.99
66312;HTU21D;53114;51.138;6.008;2023-02-02T05:47:28;8.30;118.99
66312;HTU21D;53114;51.138;6.008;2023-02-02T05:49:55;8.30;118.99
66312;HTU21D;53114;51.138;6.008;2023-02-02T05:52:24;8.31;118.99
66312;HTU21D;53114;51.138;6.008;2023-02-02T05:54:50;8.28;118.99
66312;HTU21D;53114;51.138;6.008;2023-02-02T05:57:16;8.28;118.99
66312;HTU21D;53114;51.138;6.008;2023-02-02T05:59:42;8.28;118.99
66312;HTU21D;53114;51.138;6.008;2023-02-02T06:02:08;8.28;118.99
66312;HTU21D;53114;51.138;6.008;2023-02-02T06:04:34;8.28;118.99
66312;HTU21D;53114;51.138;6.008;2023-02-02T06:07:00;8.26;118.99
66312;HTU21D;53114;51.138;6.008;2023-02-02T06:09:26;8.24;118.99
66312;HTU21D;53114;51.138;6.008;2023-02-02T06:11:52;8.24;118.99
66312;HTU21D;53114;51.138;6.008;2023-02-02T06:14:18;8.26;118.99
66312;HTU21D;53114;51.138;6.008;2023-02-02T06:16:44;8.24;118.99
66312;HTU21D;53114;51.138;6.008;2023-02-02T06:19:10;8.24;118.99
66312;HTU21D;53114;51.138;6.008;2023-02-02T06:21:38;8.21;118.99
66312;HTU21D;53114;51.138;6.008;2023-02-02T06:24:04;8.24;118.99
66312;HTU21D;53114;51.138;6.008;2023-02-02T06:26:30;8.21;118.99
66312;HTU21D;53114;51.138;6.008;2023-02-02T06:28:56;8.21;118.99
66312;HTU21D;53114;51.138;6.008;2023-02-02T06:31:23;8.20;118.99
66312;HTU21D;53114;51.138;6.008;2023-02-02T06:33:57;8.21;118.99
66312;HTU21D;53114;51.138;6.008;2023-02-02T06:36:25;8.20;118.99
66312;HTU21D;53114;51.138;6.008;2023-02-02T06:38:54;8.22;118.99
66312;HTU21D;53114;51.138;6.008;2023-02-02T06:41:24;8.22;118.99
66312;HTU21D;53114;51.138;6.008;2023-02-02T06:43:50;8.23;118.99
66312;HTU21D;53114;51.138;6.008;2023-02-02T06:46:17;8.28;118.99
66312;HTU21D;53114;51.138;6.008;2023-02-02T06:48:43;8.28;118.99
66312;HTU21D;53114;51.138;6.008;2023-02-02T06:51:10;8.28;118.99
66312;HTU21D;53114;51.138;6.008;2023-02-02T06:53:36;8.23;118.99
66312;HTU21D;53114;51.138;6.008;2023-02-02T06:56:05;8.24;118.99
66312;HTU21D;53114;51.138;6.008;2023-02-02T06:58:34;8.22;118.99
66312;HTU21D;53114;51.138;6.008;2023-02-02T07:01:05;8.21;118.99
66312;HTU21D;53114;51.138;6.008;2023-02-02T07:03:34;8.21;118.99
66312;HTU21D;53114;51.138;6.008;2023-02-02T07:06:16;8.21;118.99
66312;HTU21D;53114;51.138;6.008;2023-02-02T07:08:43;8.20;118.99
66312;HTU21D;53114;51.138;6.008;2023-02-02T07:11:10;8.23;118.99
66312;HTU21D;53114;51.138;6.008;2023-02-02T07:13:36;8.22;118.99
66312;HTU21D;53114;51.138;6.008;2023-02-02T07:16:03;8.26;118.99
66312;HTU21D;53114;51.138;6.008;2023-02-02T07:18:30;8.29;118.99
66312;HTU21D;53114;51.138;6.008;2023-02-02T07:21:02;8.29;118.99
66312;HTU21D;53114;51.138;6.008;2023-02-02T07:23:29;8.29;118.99
66312;HTU21D;53114;51.138;6.008;2023-02-02T07:26:06;8.28;118.99
66312;HTU21D;53114;51.138;6.008;2023-02-02T07:28:34;8.33;118.99
66312;HTU21D;53114;51.138;6.008;2023-02-02T07:31:00;8.36;118.99
66312;HTU21D;53114;51.138;6.008;2023-02-02T07:33:27;8.38;118.99
66312;HTU21D;53114;51.138;6.008;2023-02-02T07:35:53;8.43;118.99
66312;HTU21D;53114;51.138;6.008;2023-02-02T07:38:19;8.45;118.99
66312;HTU21D;53114;51.138;6.008;2023-02-02T07:40:46;8.47;118.99
66312;HTU21D;53114;51.138;6.008;2023-02-02T07:43:12;8.46;118.99
66312;HTU21D;53114;51.138;6.008;2023-02-02T07:45:38;8.49;118.99
66312;HTU21D;53114;51.138;6.008;2023-02-02T07:48:04;8.50;118.99
66312;HTU21D;53114;51.138;6.008;2023-02-02T07:50:30;8.58;118.99
66312;HTU21D;53114;51.138;6.008;2023-02-02T07:52:58;8.60;118.99
66312;HTU21D;53114;51.138;6.008;2023-02-02T07:55:24;8.64;118.99
66312;HTU21D;53114;51.138;6.008;2023-02-02T07:57:52;8.60;118.99
66312;HTU21D;53114;51.138;6.008;2023-02-02T08:00:20;8.65;118.99
66312;HTU21D;53114;51.138;6.008;2023-02-02T08:02:50;8.67;118.99
66312;HTU21D;53114;51.138;6.008;2023-02-02T08:05:19;8.70;118.99
66312;HTU21D;53114;51.138;6.008;2023-02-02T08:07:47;8.71;118.99
66312;HTU21D;53114;51.138;6.008;2023-02-02T08:10:13;8.70;118.99
66312;HTU21D;53114;51.138;6.008;2023-02-02T08:12:39;8.73;118.99
66312;HTU21D;53114;51.138;6.008;2023-02-02T08:15:06;8.73;118.99
66312;HTU21D;53114;51.138;6.008;2023-02-02T08:17:32;8.76;118.99
66312;HTU21D;53114;51.138;6.008;2023-02-02T08:19:58;8.75;118.99
66312;HTU21D;53114;51.138;6.008;2023-02-02T08:22:24;8.76;118.99
66312;HTU21D;53114;51.138;6.008;2023-02-02T08:24:50;8.74;118.99
66312;HTU21D;53114;51.138;6.008;2023-02-02T08:27:17;8.77;118.99
66312;HTU21D;53114;51.138;6.008;2023-02-02T08:29:43;8.81;118.99
66312;HTU21D;53114;51.138;6.008;2023-02-02T08:32:09;8.85;118.99
66312;HTU21D;53114;51.138;6.008;2023-02-02T08:34:35;8.89;118.99
66312;HTU21D;53114;51.138;6.008;2023-02-02T08:37:02;8.92;118.99
66312;HTU21D;53114;51.138;6.008;2023-02-02T08:39:29;8.95;118.99
66312;HTU21D;53114;51.138;6.008;2023-02-02T08:41:55;8.93;118.99
66312;HTU21D;53114;51.138;6.008;2023-02-02T08:44:21;8.95;118.99
66312;HTU21D;53114;51.138;6.008;2023-02-02T08:46:48;8.96;118.99
66312;HTU21D;53114;51.138;6.008;2023-02-02T08:49:14;9.00;118.99
66312;HTU21D;53114;51.138;6.008;2023-02-02T08:51:40;9.02;118.99
66312;HTU21D;53114;51.138;6.008;2023-02-02T08:54:06;9.05;118.99
66312;HTU21D;53114;51.138;6.008;2023-02-02T08:56:33;9.05;118.99
66312;HTU21D;53114;51.138;6.008;2023-02-02T08:58:59;9.01;118.99
66312;HTU21D;53114;51.138;6.008;2023-02-02T09:01:30;9.01;118.99
66312;HTU21D;53114;51.138;6.008;2023-02-02T09:03:59;9.01;118.99
66312;HTU21D;53114;51.138;6.008;2023-02-02T09:06:37;9.03;118.99
66312;HTU21D;53114;51.138;6.008;2023-02-02T09:09:08;9.00;118.99
66312;HTU21D;53114;51.138;6.008;2023-02-02T09:11:37;9.01;118.99
66312;HTU21D;53114;51.138;6.008;2023-02-02T09:14:03;9.08;118.99
66312;HTU21D;53114;51.138;6.008;2023-02-02T09:16:32;9.06;118.99
66312;HTU21D;53114;51.138;6.008;2023-02-02T09:18:59;9.07;118.99
66312;HTU21D;53114;51.138;6.008;2023-02-02T09:21:25;9.08;118.99
66312;HTU21D;53114;51.138;6.008;2023-02-02T09:23:53;9.07;118.99
66312;HTU21D;53114;51.138;6.008;2023-02-02T09:26:25;9.04;118.99
66312;HTU21D;53114;51.138;6.008;2023-02-02T09:28:54;9.07;118.99
66312;HTU21D;53114;51.138;6.008;2023-02-02T09:31:22;9.08;118.99
66312;HTU21D;53114;51.138;6.008;2023-02-02T09:33:48;9.07;118.99
66312;HTU21D;53114;51.138;6.008;2023-02-02T09:36:16;9.10;118.99
66312;HTU21D;53114;51.138;6.008;2023-02-02T09:38:43;9.15;118.99
66312;HTU21D;53114;51.138;6.008;2023-02-02T09:44:09;9.17;118.99
66312;HTU21D;53114;51.138;6.008;2023-02-02T09:52:09;9.22;118.99
66312;HTU21D;53114;51.138;6.008;2023-02-02T09:54:45;9.30;118.99
66312;HTU21D;53114;51.138;6.008;2023-02-02T09:57:18;9.32;118.99
66312;HTU21D;53114;51.138;6.008;2023-02-02T09:59:50;9.33;118.99
66312;HTU21D;53114;51.138;6.008;2023-02-02T10:02:28;9.33;118.99
66312;HTU21D;53114;51.138;6.008;2023-02-02T10:05:16;9.37;118.99
66312;HTU21D;53114;51.138;6.008;2023-02-02T10:07:49;9.35;118.99
66312;HTU21D;53114;51.138;6.008;2023-02-02T10:10:31;9.36;118.99
66312;HTU21D;53114;51.138;6.008;2023-02-02T10:13:05;9.38;118.99
66312;HTU21D;53114;51.138;6.008;2023-02-02T10:16:01;9.39;118.99
66312;HTU21D;53114;51.138;6.008;2023-02-02T10:18:47;9.45;118.99
66312;HTU21D;53114;51.138;6.008;2023-02-02T10:24:19;9.51;118.99
66312;HTU21D;53114;51.138;6.008;2023-02-02T10:26:51;9.50;118.99
66312;HTU21D;53114;51.138;6.008;2023-02-02T10:29:36;9.52;118.99
66312;HTU21D;53114;51.138;6.008;2023-02-02T10:34:43;9.69;118.99
66312;HTU21D;53114;51.138;6.008;2023-02-02T10:37:27;9.74;118.99
66312;HTU21D;53114;51.138;6.008;2023-02-02T10:45:03;9.70;118.99
66312;HTU21D;53114;51.138;6.008;2023-02-02T10:47:33;9.72;118.99
66312;HTU21D;53114;51.138;6.008;2023-02-02T10:52:44;9.70;118.99
66312;HTU21D;53114;51.138;6.008;2023-02-02T10:58:13;9.68;118.99
66312;HTU21D;53114;51.138;6.008;2023-02-02T11:00:54;9.74;118.99
66312;HTU21D;53114;51.138;6.008;2023-02-02T11:03:27;9.75;118.99
66312;HTU21D;53114;51.138;6.008;2023-02-02T11:05:53;9.82;118.99
66312;HTU21D;53114;51.138;6.008;2023-02-02T11:08:43;9.86;118.99
66312;HTU21D;53114;51.138;6.008;2023-02-02T11:16:41;9.90;118.99
66312;HTU21D;53114;51.138;6.008;2023-02-02T11:21:50;9.91;118.99
66312;HTU21D;53114;51.138;6.008;2023-02-02T11:24:51;9.93;118.99
66312;HTU21D;53114;51.138;6.008;2023-02-02T11:29:53;9.97;118.99
66312;HTU21D;53114;51.138;6.008;2023-02-02T11:32:33;10.03;118.99
66312;HTU21D;53114;51.138;6.008;2023-02-02T11:38:15;10.09;118.99
66312;HTU21D;53114;51.138;6.008;2023-02-02T11:41:05;10.12;118.99
66312;HTU21D;53114;51.138;6.008;2023-02-02T11:43:39;10.14;118.99
66312;HTU21D;53114;51.138;6.008;2023-02-02T11:49:04;10.20;118.99
66312;HTU21D;53114;51.138;6.008;2023-02-02T11:51:33;10.29;118.99
66312;HTU21D;53114;51.138;6.008;2023-02-02T11:54:15;10.29;118.99
66312;HTU21D;53114;51.138;6.008;2023-02-02T11:56:50;10.25;118.99
66312;HTU21D;53114;51.138;6.008;2023-02-02T11:59:39;10.29;118.99
66312;HTU21D;53114;51.138;6.008;2023-02-02T12:02:26;10.35;118.99
66312;HTU21D;53114;51.138;6.008;2023-02-02T12:07:48;10.37;118.99
66312;HTU21D;53114;51.138;6.008;2023-02-02T12:10:41;10.42;118.99
66312;HTU21D;53114;51.138;6.008;2023-02-02T12:13:29;10.53;118.99
66312;HTU21D;53114;51.138;6.008;2023-02-02T12:24:46;10.53;118.99
66312;HTU21D;53114;51.138;6.008;2023-02-02T12:27:24;10.52;118.99
66312;HTU21D;53114;51.138;6.008;2023-02-02T12:30:32;10.49;118.99
66312;HTU21D;53114;51.138;6.008;2023-02-02T12:33:17;10.52;118.99
66312;HTU21D;53114;51.138;6.008;2023-02-02T12:35:59;10.48;118.99
66312;HTU21D;53114;51.138;6.008;2023-02-02T13:01:40;10.72;118.99
66312;HTU21D;53114;51.138;6.008;2023-02-02T13:04:05;10.72;118.99
66312;HTU21D;53114;51.138;6.008;2023-02-02T13:06:43;10.74;118.99
66312;HTU21D;53114;51.138;6.008;2023-02-02T13:09:43;10.70;118.99
66312;HTU21D;53114;51.138;6.008;2023-02-02T13:12:13;10.70;118.99
66312;HTU21D;53114;51.138;6.008;2023-02-02T13:14:51;10.66;118.99
66312;HTU21D;53114;51.138;6.008;2023-02-02T13:17:39;10.72;118.99
66312;HTU21D;53114;51.138;6.008;2023-02-02T13:23:27;10.74;118.99
66312;HTU21D;53114;51.138;6.008;2023-02-02T13:31:24;10.69;118.99
66312;HTU21D;53114;51.138;6.008;2023-02-02T13:34:05;10.67;118.99
66312;HTU21D;53114;51.138;6.008;2023-02-02T13:36:43;10.71;118.99
66312;HTU21D;53114;51.138;6.008;2023-02-02T13:39:37;10.83;118.99
66312;HTU21D;53114;51.138;6.008;2023-02-02T13:42:55;10.94;118.99
66312;HTU21D;53114;51.138;6.008;2023-02-02T13:48:23;11.16;118.99
66312;HTU21D;53114;51.138;6.008;2023-02-02T13:56:38;11.23;118.99
66312;HTU21D;53114;51.138;6.008;2023-02-02T13:59:24;11.22;118.99
66312;HTU21D;53114;51.138;6.008;2023-02-02T14:01:57;11.16;118.99
66312;HTU21D;53114;51.138;6.008;2023-02-02T14:04:27;11.19;118.99
66312;HTU21D;53114;51.138;6.008;2023-02-02T14:07:03;11.16;118.99
66312;HTU21D;53114;51.138;6.008;2023-02-02T14:09:34;11.14;118.99
66312;HTU21D;53114;51.138;6.008;2023-02-02T14:12:08;11.10;118.99
66312;HTU21D;53114;51.138;6.008;2023-02-02T14:14:37;11.04;118.99
66312;HTU21D;53114;51.138;6.008;2023-02-02T14:19:54;10.93;118.99
66312;HTU21D;53114;51.138;6.008;2023-02-02T14:27:58;11.00;118.99
66312;HTU21D;53114;51.138;6.008;2023-02-02T14:30:32;11.13;118.99
66312;HTU21D;53114;51.138;6.008;2023-02-02T14:33:22;11.26;118.99
66312;HTU21D;53114;51.138;6.008;2023-02-02T14:38:45;11.14;118.99
66312;HTU21D;53114;51.138;6.008;2023-02-02T14:41:23;11.12;118.99
66312;HTU21D;53114;51.138;6.008;2023-02-02T14:44:15;11.07;118.99
66312;HTU21D;53114;51.138;6.008;2023-02-02T14:46:42;11.03;118.99
66312;HTU21D;53114;51.138;6.008;2023-02-02T14:49:26;11.05;118.99
66312;HTU21D;53114;51.138;6.008;2023-02-02T14:51:59;11.03;118.99
66312;HTU21D;53114;51.138;6.008;2023-02-02T14:54:39;11.02;118.99
66312;HTU21D;53114;51.138;6.008;2023-02-02T14:57:27;10.96;118.99
66312;HTU21D;53114;51.138;6.008;2023-02-02T14:59:55;10.94;118.99
66312;HTU21D;53114;51.138;6.008;2023-02-02T15:02:31;10.93;118.99
66312;HTU21D;53114;51.138;6.008;2023-02-02T15:13:23;10.89;118.99
66312;HTU21D;53114;51.138;6.008;2023-02-02T15:16:02;10.87;118.99
66312;HTU21D;53114;51.138;6.008;2023-02-02T15:18:40;10.85;118.99
66312;HTU21D;53114;51.138;6.008;2023-02-02T15:21:14;10.83;118.99
66312;HTU21D;53114;51.138;6.008;2023-02-02T15:23:44;10.81;118.99
66312;HTU21D;53114;51.138;6.008;2023-02-02T15:26:24;10.81;118.99
66312;HTU21D;53114;51.138;6.008;2023-02-02T15:28:58;10.78;118.99
66312;HTU21D;53114;51.138;6.008;2023-02-02T15:31:44;10.78;118.99
66312;HTU21D;53114;51.138;6.008;2023-02-02T15:34:41;10.75;118.99
66312;HTU21D;53114;51.138;6.008;2023-02-02T15:37:15;10.75;118.99
66312;HTU21D;53114;51.138;6.008;2023-02-02T15:39:47;10.72;118.99
66312;HTU21D;53114;51.138;6.008;2023-02-02T15:42:33;10.73;118.99
66312;HTU21D;53114;51.138;6.008;2023-02-02T15:45:41;10.74;118.99
66312;HTU21D;53114;51.138;6.008;2023-02-02T15:48:22;10.73;118.99
66312;HTU21D;53114;51.138;6.008;2023-02-02T15:50:51;10.73;118.99
66312;HTU21D;53114;51.138;6.008;2023-02-02T15:53:27;10.72;118.99
66312;HTU21D;53114;51.138;6.008;2023-02-02T15:55:55;10.71;118.99
66312;HTU21D;53114;51.138;6.008;2023-02-02T15:58:29;10.71;118.99
66312;HTU21D;53114;51.138;6.008;2023-02-02T16:00:59;10.68;118.99
66312;HTU21D;53114;51.138;6.008;2023-02-02T16:03:32;10.71;118.99
66312;HTU21D;53114;51.138;6.008;2023-02-02T16:06:03;10.67;118.99
66312;HTU21D;53114;51.138;6.008;2023-02-02T16:08:31;10.64;118.99
66312;HTU21D;53114;51.138;6.008;2023-02-02T16:13:50;10.52;118.99
66312;HTU21D;53114;51.138;6.008;2023-02-02T16:16:25;10.43;118.99
66312;HTU21D;53114;51.138;6.008;2023-02-02T16:19:24;10.33;118.99
66312;HTU21D;53114;51.138;6.008;2023-02-02T16:22:02;10.23;118.99
66312;HTU21D;53114;51.138;6.008;2023-02-02T16:24:36;10.11;118.99
66312;HTU21D;53114;51.138;6.008;2023-02-02T16:27:06;10.05;118.99
66312;HTU21D;53114;51.138;6.008;2023-02-02T16:29:35;9.99;118.99
66312;HTU21D;53114;51.138;6.008;2023-02-02T16:32:02;9.95;118.99
66312;HTU21D;53114;51.138;6.008;2023-02-02T16:39:39;9.76;118.99
66312;HTU21D;53114;51.138;6.008;2023-02-02T16:42:27;9.75;118.99
66312;HTU21D;53114;51.138;6.008;2023-02-02T16:44:55;9.74;118.99
66312;HTU21D;53114;51.138;6.008;2023-02-02T16:49:52;9.66;118.99
66312;HTU21D;53114;51.138;6.008;2023-02-02T16:52:20;9.62;118.99
66312;HTU21D;53114;51.138;6.008;2023-02-02T16:54:55;9.56;118.99
66312;HTU21D;53114;51.138;6.008;2023-02-02T16:57:30;9.55;118.99
66312;HTU21D;53114;51.138;6.008;2023-02-02T17:00:06;9.55;118.99
66312;HTU21D;53114;51.138;6.008;2023-02-02T17:02:37;9.56;118.99
66312;HTU21D;53114;51.138;6.008;2023-02-02T17:05:23;9.60;118.99
66312;HTU21D;53114;51.138;6.008;2023-02-02T17:07:59;9.60;118.99
66312;HTU21D;53114;51.138;6.008;2023-02-02T17:10:36;9.63;118.99
66312;HTU21D;53114;51.138;6.008;2023-02-02T17:15:55;9.62;118.99
66312;HTU21D;53114;51.138;6.008;2023-02-02T17:18:22;9.62;118.99
66312;HTU21D;53114;51.138;6.008;2023-02-02T17:20:50;9.61;118.99
66312;HTU21D;53114;51.138;6.008;2023-02-02T17:23:25;9.62;118.99
66312;HTU21D;53114;51.138;6.008;2023-02-02T17:25:53;9.63;118.99
66312;HTU21D;53114;51.138;6.008;2023-02-02T17:28:22;9.62;118.99
66312;HTU21D;53114;51.138;6.008;2023-02-02T17:31:01;9.63;118.99
66312;HTU21D;53114;51.138;6.008;2023-02-02T17:33:28;9.63;118.99
66312;HTU21D;53114;51.138;6.008;2023-02-02T17:35:56;9.64;118.99
66312;HTU21D;53114;51.138;6.008;2023-02-02T17:38:24;9.64;118.99
66312;HTU21D;53114;51.138;6.008;2023-02-02T17:40:52;9.67;118.99
66312;HTU21D;53114;51.138;6.008;2023-02-02T17:43:23;9.68;118.99
66312;HTU21D;53114;51.138;6.008;2023-02-02T17:45:49;9.66;118.99
66312;HTU21D;53114;51.138;6.008;2023-02-02T17:48:16;9.66;118.99
66312;HTU21D;53114;51.138;6.008;2023-02-02T17:50:44;9.65;118.99
66312;HTU21D;53114;51.138;6.008;2023-02-02T17:53:15;9.66;118.99
66312;HTU21D;53114;51.138;6.008;2023-02-02T17:55:43;9.67;118.99
66312;HTU21D;53114;51.138;6.008;2023-02-02T17:58:10;9.71;118.99
66312;HTU21D;53114;51.138;6.008;2023-02-02T18:00:45;9.71;118.99
66312;HTU21D;53114;51.138;6.008;2023-02-02T18:03:27;9.71;118.99
66312;HTU21D;53114;51.138;6.008;2023-02-02T18:05:55;9.72;118.99
66312;HTU21D;53114;51.138;6.008;2023-02-02T18:08:32;9.70;118.99
66312;HTU21D;53114;51.138;6.008;2023-02-02T18:10:58;9.72;118.99